This is the latest recevied weather packets stored in our database for station/object WE8M. If no packets are shown the sender has not sent any weather packets the latest 10 day(s).
| Time | Temp. | Humidity | Pressure | Rain* | Wind** | Luminosity | Snow |
|---|---|---|---|---|---|---|---|
| 1777865808 | 11.67° C | 56% | 1014 hPa | 0 mm | - | - | - |
| 1777865505 | 11.67° C | 56% | 1014.1 hPa | 0 mm | - | - | - |
| 1777864292 | 12.22° C | 53% | 1014.2 hPa | 0 mm | - | - | - |
| 1777863988 | 12.22° C | 52% | 1014.3 hPa | 0 mm | - | - | - |
| 1777846712 | 14.44° C | 42% | 1014.9 hPa | 0 mm | - | - | - |
| 1777845803 | 14.44° C | 40% | 1014.8 hPa | 0 mm | - | - | - |
| 1777845198 | 15° C | 42% | 1014.7 hPa | 0 mm | - | - | - |
| 1777844290 | 14.44° C | 44% | 1015.3 hPa | 0 mm | - | - | - |
| 1777843987 | 14.44° C | 39% | 1015.5 hPa | 0 mm | - | - | - |
| 1777843382 | 14.44° C | 41% | 1016 hPa | 0 mm | - | - | - |
| 1777843079 | 15° C | 42% | 1016.1 hPa | 0 mm | - | - | - |
| 1777842775 | 15° C | 38% | 1016 hPa | 0 mm | - | - | - |
| 1777842475 | 15° C | 40% | 1015.9 hPa | 0 mm | - | - | - |
| 1777840656 | 15.56° C | 42% | 1015.6 hPa | 0 mm | - | - | - |
| 1777840354 | 16.11° C | 38% | 1015.4 hPa | 0 mm | - | - | - |
| 1777840051 | 16.67° C | 38% | 1015.4 hPa | 0 mm | - | - | - |
| 1777839751 | 16.67° C | 37% | 1015.6 hPa | 0 mm | - | - | - |
| 1777839446 | 16.67° C | 35% | 1015.6 hPa | 0 mm | - | - | - |
| 1777839144 | 16.67° C | 39% | 1016.1 hPa | 0 mm | - | - | - |
| 1777838536 | 16.67° C | 36% | 1016.4 hPa | 0 mm | - | - | - |
| 1777838233 | 16.11° C | 38% | 1016.4 hPa | 0 mm | - | - | - |
| 1777836411 | 16.67° C | 38% | 1016.6 hPa | 0 mm | - | - | - |
| 1777836107 | 16.67° C | 35% | 1016.6 hPa | 0 mm | - | - | - |
| 1777835501 | 16.11° C | 34% | 1016.8 hPa | 0 mm | - | - | - |
| 1777833375 | 15.56° C | 43% | 1017.6 hPa | 0 mm | - | - | - |
* Rain latest hour (hover to see other rain measurements)
** Current wind speed in m/s (hover to see current wind gust speed)